createdAt,value
2023-07-02T08:46:48.850Z,9.762937
2023-07-02T08:47:48.775Z,9.762848
2023-07-02T08:48:48.743Z,9.762848
2023-07-02T08:49:48.762Z,9.762841
2023-07-02T08:50:49.244Z,9.762851
2023-07-02T08:51:48.721Z,9.762749
2023-07-02T08:52:48.694Z,9.762808
2023-07-02T08:53:48.748Z,9.762768
2023-07-02T08:54:48.709Z,9.762610
2023-07-02T08:55:48.718Z,9.762653
2023-07-02T08:56:48.723Z,9.762655
2023-07-02T08:57:48.687Z,9.762754
2023-07-02T08:58:48.653Z,9.761977
2023-07-02T08:59:48.652Z,9.762335
2023-07-02T09:00:48.890Z,9.762380
2023-07-02T09:01:48.694Z,9.761957
2023-07-02T09:02:48.706Z,9.762418
2023-07-02T09:03:48.607Z,9.762287
2023-07-02T09:04:48.680Z,9.760573
2023-07-02T09:05:48.595Z,9.748791
2023-07-02T09:06:48.717Z,9.736572
2023-07-02T09:07:49.815Z,9.724895
2023-07-02T09:08:48.555Z,9.724895
2023-07-02T09:09:48.658Z,9.724895
2023-07-02T09:10:48.771Z,9.724895
2023-07-02T09:11:48.554Z,9.724895
2023-07-02T09:12:48.521Z,9.724895
2023-07-02T09:13:48.548Z,9.724895
2023-07-02T09:14:48.514Z,9.724895
2023-07-02T09:15:48.490Z,9.724895
2023-07-02T09:16:48.526Z,9.724895
2023-07-02T09:17:48.524Z,9.724895
2023-07-02T09:18:48.468Z,9.724895
2023-07-02T09:19:48.495Z,9.724895
2023-07-02T09:20:48.905Z,9.724895
2023-07-02T09:21:48.478Z,9.724895
2023-07-02T09:22:48.458Z,9.724895
2023-07-02T09:23:48.504Z,9.724895
2023-07-02T09:24:48.438Z,9.724895
2023-07-02T09:25:48.390Z,9.724895
2023-07-02T09:26:48.381Z,9.724895
2023-07-02T09:27:48.424Z,9.724895
2023-07-02T09:28:50.787Z,9.724895
2023-07-02T09:29:48.422Z,9.724895
2023-07-02T09:30:48.542Z,9.724895
2023-07-02T09:32:07.322Z,9.724895
2023-07-02T09:32:50.456Z,9.724895
2023-07-02T09:33:48.551Z,9.724895
2023-07-02T09:34:48.423Z,9.724895
2023-07-02T09:35:49.056Z,9.724895
2023-07-02T09:36:48.774Z,9.724895
2023-07-02T09:37:48.426Z,9.724895
2023-07-02T09:38:48.414Z,9.724895
2023-07-02T09:39:48.664Z,9.724895
2023-07-02T09:40:48.469Z,9.724895
2023-07-02T09:41:48.312Z,9.724895
2023-07-02T09:42:48.311Z,9.724895
2023-07-02T09:43:48.338Z,9.724895
2023-07-02T09:44:48.332Z,9.724895
2023-07-02T09:45:48.924Z,9.762836
2023-07-02T09:46:48.361Z,9.763016
2023-07-02T09:47:48.362Z,9.763222
2023-07-02T09:48:48.336Z,9.762906
2023-07-02T09:49:48.251Z,9.762714
2023-07-02T09:50:48.690Z,9.762974
2023-07-02T09:51:48.192Z,9.762804
2023-07-02T09:52:48.226Z,9.762947
2023-07-02T09:53:48.173Z,9.762770
2023-07-02T09:54:48.830Z,9.762813
2023-07-02T09:55:48.236Z,9.762752
2023-07-02T09:56:48.308Z,9.762617
2023-07-02T09:57:48.348Z,9.762796
2023-07-02T09:58:48.333Z,9.762268
2023-07-02T09:59:48.145Z,9.762460
2023-07-02T10:00:48.457Z,9.763495
2023-07-02T10:01:48.222Z,9.763495
2023-07-02T10:02:48.139Z,9.763495
2023-07-02T10:03:48.104Z,9.762783
2023-07-02T10:04:48.178Z,9.762710
2023-07-02T10:05:48.176Z,9.762714
2023-07-02T10:06:48.064Z,9.762533
2023-07-02T10:07:48.895Z,9.762815
2023-07-02T10:08:47.990Z,9.763435
2023-07-02T10:09:48.043Z,9.763295
2023-07-02T10:10:48.230Z,9.762891
2023-07-02T10:11:47.957Z,9.761859
2023-07-02T10:12:47.966Z,9.761778
2023-07-02T10:13:47.917Z,9.761778
2023-07-02T10:14:48.001Z,9.761778
2023-07-02T10:15:47.944Z,9.761778
2023-07-02T10:16:47.954Z,9.761778
2023-07-02T10:17:48.181Z,9.761778
2023-07-02T10:18:48.026Z,9.761778
2023-07-02T10:19:48.272Z,9.761778
2023-07-02T10:20:49.715Z,9.761778
2023-07-02T10:21:52.516Z,9.761778
2023-07-02T10:22:49.029Z,9.761778
2023-07-02T10:23:48.163Z,9.761778
2023-07-02T10:25:11.526Z,9.761778
2023-07-02T10:25:48.911Z,9.761778
2023-07-02T10:26:47.952Z,9.761778
2023-07-02T10:27:48.850Z,9.761778
2023-07-02T10:28:47.783Z,9.761778
2023-07-02T10:29:47.928Z,9.761778
2023-07-02T10:30:48.023Z,9.761778
2023-07-02T10:31:47.912Z,9.761778
2023-07-02T10:32:51.898Z,9.761778
2023-07-02T10:33:49.005Z,9.761778
2023-07-02T10:34:48.120Z,9.761778
2023-07-02T10:35:47.990Z,9.761778
2023-07-02T10:36:48.970Z,9.761778
2023-07-02T10:37:47.954Z,9.761778
2023-07-02T10:38:48.192Z,9.761778
2023-07-02T15:08:10.247Z,9.762565
2023-07-02T15:09:10.233Z,9.762565
2023-07-02T15:10:10.195Z,9.762565
2023-07-02T15:11:10.200Z,9.762565
2023-07-02T15:12:10.233Z,9.762565
2023-07-02T15:13:10.187Z,9.762565
2023-07-02T15:14:10.186Z,9.762565
2023-07-02T15:15:10.127Z,9.762565
2023-07-02T15:16:10.148Z,9.762565
2023-07-02T15:17:10.167Z,9.762565
2023-07-02T15:18:10.102Z,9.762565
2023-07-02T15:19:10.104Z,9.762565
2023-07-02T15:20:10.084Z,9.762565
2023-07-02T15:21:10.109Z,9.762565
2023-07-02T15:22:10.187Z,9.762565
2023-07-02T15:23:10.074Z,9.762565
2023-07-02T15:24:10.090Z,9.762565
2023-07-02T15:25:10.053Z,9.762565
2023-07-02T15:26:10.045Z,9.762565
2023-07-02T15:27:10.102Z,9.762565
2023-07-02T15:28:10.050Z,9.762565
2023-07-02T15:29:10.015Z,9.762565
2023-07-02T15:30:10.010Z,9.762565
2023-07-02T15:31:10.062Z,9.762565
2023-07-02T15:32:10.152Z,9.762565
2023-07-02T15:33:09.981Z,9.762565
2023-07-02T15:34:09.989Z,9.762565
2023-07-02T15:35:10.973Z,9.762565
2023-07-02T15:36:09.936Z,9.762565
2023-07-02T15:37:09.926Z,9.762565
2023-07-02T15:38:09.922Z,9.762565
2023-07-02T15:39:09.940Z,9.762565
2023-07-02T15:40:09.888Z,9.762565
2023-07-02T15:41:09.903Z,9.762565
2023-07-02T15:42:09.935Z,9.762565
2023-07-02T15:43:09.968Z,9.762715
2023-07-02T15:44:09.881Z,9.762640
2023-07-02T15:45:09.851Z,9.762595
2023-07-02T15:46:09.860Z,9.762595
2023-07-02T15:47:09.888Z,9.762595
2023-07-02T15:48:09.836Z,9.762449
2023-07-02T15:49:09.852Z,9.762420
2023-07-02T15:50:09.815Z,9.760930
2023-07-02T15:51:09.813Z,9.761784
2023-07-02T15:52:09.819Z,9.762533
2023-07-02T15:53:09.816Z,9.762816
2023-07-02T15:54:09.784Z,9.762801
2023-07-02T15:55:09.814Z,9.762427
2023-07-02T15:56:09.752Z,9.762746
2023-07-02T15:57:09.809Z,9.762781
2023-07-02T15:58:09.861Z,9.762750
2023-07-02T15:59:09.753Z,9.762518
2023-07-02T16:00:09.737Z,9.762597
2023-07-02T16:01:09.690Z,9.763247
2023-07-02T16:02:09.728Z,9.764317
2023-07-02T16:03:09.813Z,9.764089
2023-07-02T16:04:10.174Z,9.763676
2023-07-02T16:05:09.834Z,9.762514
2023-07-02T16:06:09.944Z,9.762768
2023-07-02T16:07:09.637Z,9.762768
2023-07-02T16:08:09.961Z,9.763062
2023-07-02T16:09:09.713Z,9.762608
2023-07-02T16:10:09.601Z,9.762944
2023-07-02T16:11:09.600Z,9.763495
2023-07-02T16:12:09.638Z,9.763495
2023-07-02T16:13:09.614Z,9.763495
2023-07-02T16:14:09.600Z,9.763495
2023-07-02T16:15:09.572Z,9.763495
2023-07-02T16:16:09.563Z,9.763495
2023-07-02T16:17:09.627Z,9.763495
2023-07-02T16:18:09.576Z,9.763495
2023-07-02T16:19:09.745Z,9.763495
2023-07-02T16:20:09.789Z,9.763495
2023-07-02T16:21:09.526Z,9.763495
2023-07-02T16:22:09.542Z,9.763495
2023-07-02T16:23:09.533Z,9.763495
2023-07-02T16:24:09.498Z,9.763495
2023-07-02T16:25:09.481Z,9.763495
2023-07-02T16:26:09.970Z,9.763495
2023-07-02T16:27:09.719Z,9.763495
2023-07-02T16:28:09.451Z,9.763495
2023-07-02T16:29:09.484Z,9.763495
2023-07-02T16:30:09.484Z,9.763495
2023-07-02T16:31:09.460Z,9.763495
2023-07-02T16:32:09.487Z,9.763495
2023-07-02T16:33:09.376Z,9.763495
2023-07-02T16:34:09.348Z,9.763495
2023-07-02T16:35:09.350Z,9.763495
2023-07-02T16:36:09.375Z,9.763495
2023-07-02T16:37:09.326Z,9.763495
2023-07-02T16:38:09.316Z,9.763495
2023-07-02T16:39:09.469Z,9.763495
2023-07-02T16:40:09.317Z,9.763495
2023-07-02T16:41:09.414Z,9.763495
2023-07-02T16:42:09.496Z,9.762726
2023-07-02T16:43:09.305Z,9.762785
2023-07-02T16:44:09.361Z,9.763521
2023-07-02T16:45:09.428Z,9.762937
2023-07-02T16:46:09.441Z,9.763473
2023-07-02T16:47:09.240Z,9.762433
2023-07-02T16:48:09.247Z,9.762597
2023-07-02T16:49:09.243Z,9.762718
2023-07-02T16:50:09.284Z,9.762718
2023-07-02T16:51:09.197Z,9.762718
2023-07-02T16:52:09.251Z,9.762790
2023-07-02T16:53:09.160Z,9.762772
2023-07-02T16:54:09.173Z,9.762767
2023-07-02T16:55:09.160Z,9.766382
2023-07-02T16:56:09.137Z,9.763853
2023-07-02T16:57:09.125Z,9.762839
2023-07-02T16:58:09.152Z,9.762565
2023-07-02T16:59:09.127Z,9.762425
2023-07-02T17:00:09.139Z,9.762421
2023-07-02T17:01:09.142Z,9.762188
2023-07-02T17:02:09.095Z,9.762188
2023-07-02T17:03:09.204Z,9.762568
2023-07-02T17:04:09.319Z,9.762490
2023-07-02T17:05:09.096Z,9.762731
2023-07-02T17:06:09.062Z,9.762784
2023-07-02T17:07:09.005Z,9.762860
2023-07-02T17:08:09.053Z,9.762716
2023-07-02T17:09:09.068Z,9.763054
2023-07-02T17:10:09.001Z,9.763128
2023-07-02T17:11:10.541Z,9.762990
2023-07-02T17:12:09.033Z,9.762758
2023-07-02T17:13:08.997Z,9.762758
2023-07-02T17:14:08.973Z,9.761100
2023-07-02T17:15:08.992Z,9.762157
2023-07-02T17:16:08.949Z,9.762157
2023-07-02T17:17:08.974Z,9.762157
2023-07-02T17:18:09.037Z,9.762157
2023-07-02T17:19:08.927Z,9.762157
2023-07-02T17:20:08.968Z,9.762157
2023-07-02T17:21:08.930Z,9.762157
2023-07-02T17:22:08.910Z,9.762157
2023-07-02T17:23:08.945Z,9.762157
2023-07-02T17:24:09.532Z,9.762157
2023-07-02T17:25:08.850Z,9.763222
2023-07-02T17:26:08.852Z,9.763347
2023-07-02T17:27:08.854Z,9.763190
2023-07-02T17:28:08.841Z,9.762870
2023-07-02T17:29:09.012Z,9.763080
2023-07-02T17:30:09.844Z,9.762902
2023-07-02T17:31:08.866Z,9.763032
2023-07-02T17:32:08.829Z,9.762960
2023-07-02T17:33:08.878Z,9.762801
2023-07-02T17:34:08.795Z,9.762753
2023-07-02T17:35:08.785Z,9.762662
2023-07-02T17:36:08.763Z,9.762783
2023-07-02T17:37:08.764Z,9.762774
2023-07-02T17:38:08.759Z,9.762708
2023-07-02T17:39:08.772Z,9.762806
2023-07-02T17:40:08.792Z,9.762745
2023-07-02T17:41:08.709Z,9.762600
2023-07-02T17:42:08.703Z,9.763063
2023-07-02T17:43:08.684Z,9.762757
2023-07-02T17:44:08.686Z,9.762739
2023-07-02T17:45:08.688Z,9.762806
2023-07-02T17:46:08.672Z,9.762723
2023-07-02T17:47:08.729Z,9.762672
2023-07-02T17:48:08.646Z,9.762726
2023-07-02T17:49:08.613Z,9.762744
2023-07-02T17:50:08.625Z,9.762790
2023-07-02T17:51:08.623Z,9.763047
2023-07-02T17:52:08.626Z,9.762822
2023-07-02T17:53:08.601Z,9.762681
2023-07-02T17:54:08.584Z,9.762898
2023-07-02T17:55:08.580Z,9.762639
2023-07-02T17:56:08.574Z,9.762767
2023-07-02T17:57:08.562Z,9.762694
2023-07-02T17:58:08.569Z,9.762603
2023-07-02T17:59:08.583Z,9.762624
2023-07-02T18:00:08.557Z,9.762526
2023-07-02T18:01:08.562Z,9.762731
2023-07-02T18:02:08.525Z,9.762429
2023-07-02T18:03:08.641Z,9.762514
2023-07-02T18:04:08.679Z,9.762699
2023-07-02T18:05:09.721Z,9.762584
2023-07-02T18:06:08.507Z,9.762709
2023-07-02T18:07:08.465Z,9.762733
2023-07-02T18:08:08.656Z,9.762650
2023-07-02T18:09:08.448Z,9.762793
2023-07-02T18:10:08.444Z,9.762604
2023-07-02T18:11:08.409Z,9.762461
2023-07-02T18:12:08.386Z,9.762682
2023-07-02T18:13:08.384Z,9.762689
2023-07-02T18:14:08.381Z,9.762517
2023-07-02T18:15:08.392Z,9.762600
2023-07-02T18:16:08.400Z,9.762707
2023-07-02T18:17:08.364Z,9.762728
2023-07-02T18:18:08.311Z,9.762739
2023-07-02T18:19:08.324Z,9.762808
2023-07-02T18:20:08.333Z,9.762566
2023-07-02T18:21:08.321Z,9.762753
2023-07-02T18:22:08.273Z,9.762976
2023-07-02T18:23:08.291Z,9.762759
2023-07-02T18:24:08.274Z,9.762693
2023-07-02T18:25:08.254Z,9.762752
2023-07-02T18:26:08.259Z,9.762851
2023-07-02T18:27:08.249Z,9.761835
2023-07-02T18:28:08.268Z,9.762725
2023-07-02T18:29:08.227Z,9.762838
2023-07-02T18:30:08.210Z,9.762884
2023-07-02T18:31:08.263Z,9.762821
2023-07-02T18:32:08.178Z,9.762870
2023-07-02T18:33:08.249Z,9.762764
2023-07-02T18:34:08.172Z,9.762701
2023-07-02T18:35:08.166Z,9.762708
2023-07-02T18:36:08.147Z,9.763063
2023-07-02T18:37:08.153Z,9.762763
2023-07-02T18:38:08.137Z,9.762770
2023-07-02T18:39:08.106Z,9.762824
2023-07-02T18:40:08.088Z,9.762665
2023-07-02T18:41:08.125Z,9.762809
2023-07-02T18:42:08.100Z,9.762784
2023-07-02T18:43:08.065Z,9.762671
2023-07-02T18:44:08.061Z,9.762671
2023-07-02T18:45:08.038Z,9.762771
2023-07-02T18:46:08.053Z,9.762927
2023-07-02T18:47:08.041Z,9.762830
2023-07-02T18:48:09.053Z,9.762741
2023-07-02T18:49:09.025Z,9.762788
2023-07-02T18:50:08.025Z,9.762985
2023-07-02T18:51:07.995Z,9.762730
2023-07-02T18:52:08.004Z,9.762398
2023-07-02T18:53:07.962Z,9.762293
2023-07-02T18:54:07.964Z,9.762598
2023-07-02T18:55:07.949Z,9.762717
2023-07-02T18:56:07.993Z,9.762349
2023-07-02T18:57:07.913Z,9.761856
2023-07-02T18:58:07.919Z,9.762481
2023-07-02T18:59:07.905Z,9.762774
2023-07-02T19:00:07.888Z,9.762824
2023-07-02T19:01:07.935Z,9.762760
2023-07-02T19:02:08.000Z,9.762759
2023-07-02T19:03:08.000Z,9.762776
2023-07-02T19:04:07.882Z,9.762828
2023-07-02T19:05:07.902Z,9.762897
2023-07-02T19:06:07.870Z,9.762791
2023-07-02T19:07:07.868Z,9.762816
2023-07-02T19:08:07.832Z,9.762785
2023-07-02T19:09:07.808Z,9.762772
2023-07-02T19:10:07.800Z,9.762912
2023-07-02T19:11:07.821Z,9.762718
2023-07-02T19:12:07.789Z,9.762755
2023-07-02T19:13:07.792Z,9.763019
2023-07-02T19:14:07.796Z,9.763302
2023-07-02T19:15:07.764Z,9.762536
2023-07-02T19:16:07.786Z,9.762794
2023-07-02T19:17:07.717Z,9.762806
2023-07-02T19:18:08.757Z,9.762696
2023-07-02T19:19:07.716Z,9.762732
2023-07-02T19:20:07.726Z,9.762779
2023-07-02T19:21:07.690Z,9.762818
2023-07-02T19:22:07.674Z,9.762844
2023-07-02T19:23:07.680Z,9.762753
2023-07-02T19:24:07.690Z,9.762754
2023-07-02T19:25:07.652Z,9.762926
2023-07-02T19:26:07.695Z,9.762687
2023-07-02T19:27:07.644Z,9.762865
2023-07-02T19:28:07.638Z,9.762772
2023-07-02T19:29:07.622Z,9.762944
2023-07-02T19:30:07.599Z,9.762969
2023-07-02T19:31:07.663Z,9.762827
2023-07-02T19:32:07.572Z,9.762758
2023-07-02T19:33:07.745Z,9.762728
2023-07-02T19:34:07.583Z,9.762647
2023-07-02T19:35:07.596Z,9.762937
2023-07-02T19:36:07.571Z,9.762831
2023-07-02T19:37:07.543Z,9.762867
2023-07-02T19:38:07.523Z,9.762983
2023-07-02T19:39:07.527Z,9.762871
2023-07-02T19:40:07.516Z,9.763130
2023-07-02T19:41:07.491Z,9.762900
2023-07-02T19:42:07.483Z,9.762639
2023-07-02T19:43:07.503Z,9.762988
2023-07-02T19:44:07.505Z,9.762846
2023-07-02T19:45:07.457Z,9.762558
2023-07-02T19:46:07.556Z,9.762855
2023-07-02T19:47:07.442Z,9.762712
2023-07-02T19:48:07.523Z,9.762815
2023-07-02T19:49:07.406Z,9.763130
2023-07-02T19:50:07.428Z,9.762907
2023-07-02T19:51:07.404Z,9.762914
2023-07-02T19:52:07.391Z,9.762987
2023-07-02T19:53:07.391Z,9.762717
2023-07-02T19:54:07.358Z,9.762609
2023-07-02T19:55:07.372Z,9.762937
2023-07-02T19:56:07.361Z,9.762779
2023-07-02T19:57:07.340Z,9.762802
2023-07-02T19:58:07.333Z,9.762759
2023-07-02T19:59:07.318Z,9.762757
2023-07-02T20:00:07.344Z,9.762814
2023-07-02T20:01:07.283Z,9.762529
2023-07-02T20:02:08.328Z,9.762704
2023-07-02T20:03:07.364Z,9.762826
2023-07-02T20:04:07.374Z,9.762869
2023-07-02T20:05:07.381Z,9.762821
2023-07-02T20:06:07.457Z,9.762856
2023-07-02T20:07:07.273Z,9.762876
2023-07-02T20:08:07.231Z,9.762887
2023-07-02T20:09:07.229Z,9.762819
2023-07-02T20:10:07.199Z,9.762781
2023-07-02T20:11:07.238Z,9.762979
2023-07-02T20:12:07.228Z,9.762855
2023-07-02T20:13:07.188Z,9.762949
2023-07-02T20:14:07.176Z,9.762655
2023-07-02T20:15:07.155Z,9.762792
2023-07-02T20:16:07.176Z,9.762815
2023-07-02T20:17:07.223Z,9.762825
2023-07-02T20:18:07.178Z,9.762796
2023-07-02T20:19:07.140Z,9.762757
2023-07-02T20:20:07.122Z,9.762876
2023-07-02T20:21:07.114Z,9.762883
2023-07-02T20:22:08.124Z,9.762858
2023-07-02T20:23:07.123Z,9.762885
2023-07-02T20:24:07.069Z,9.762821
2023-07-02T20:25:35.490Z,9.762966
2023-07-02T20:26:09.203Z,9.762778
2023-07-02T20:27:07.061Z,9.762690
2023-07-02T20:28:07.052Z,9.762835
2023-07-02T20:29:07.041Z,9.763052
2023-07-02T20:30:07.064Z,9.762165
2023-07-02T20:31:07.137Z,9.762541
2023-07-02T20:32:06.997Z,9.762714
2023-07-02T20:33:07.033Z,9.762764
2023-07-02T20:34:06.993Z,9.762725
2023-07-02T20:35:06.991Z,9.762715
2023-07-02T20:36:06.964Z,9.762902
2023-07-02T20:37:06.950Z,9.762771
2023-07-02T20:38:06.938Z,9.762760
2023-07-02T20:39:06.962Z,9.762604
2023-07-02T20:40:06.951Z,9.762596
2023-07-02T20:41:06.917Z,9.762747
2023-07-02T20:42:06.939Z,9.762820
2023-07-02T20:43:06.894Z,9.762622
2023-07-02T20:44:06.905Z,9.762217
2023-07-02T20:45:06.905Z,9.759836
2023-07-02T20:46:06.867Z,9.761236
2023-07-02T20:47:06.858Z,9.763547
2023-07-02T20:48:06.897Z,9.763882
2023-07-02T20:49:06.888Z,9.763122
2023-07-02T20:50:06.843Z,9.762886
2023-07-02T20:51:06.805Z,9.762715
2023-07-02T20:52:06.835Z,9.762579
2023-07-02T20:53:06.802Z,9.762870
2023-07-02T20:54:06.840Z,9.762755
2023-07-02T20:55:06.801Z,9.762515
2023-07-02T20:56:06.802Z,9.762695
2023-07-02T20:57:06.779Z,9.762703
2023-07-02T20:58:06.777Z,9.762642
2023-07-02T20:59:06.783Z,9.762703
2023-07-02T21:00:06.761Z,9.762842
2023-07-02T21:01:06.784Z,9.762717
2023-07-02T21:02:06.744Z,9.762829
2023-07-02T21:03:06.845Z,9.762679
2023-07-02T21:04:06.759Z,9.762722
2023-07-02T21:05:06.668Z,9.762903
2023-07-02T21:06:06.686Z,9.762894
2023-07-02T21:07:06.732Z,9.762736
2023-07-02T21:08:06.661Z,9.762948
2023-07-02T21:09:06.680Z,9.762666
2023-07-02T21:10:06.670Z,9.762922
2023-07-02T21:11:10.951Z,9.762753
2023-07-02T21:12:08.632Z,9.762791
2023-07-02T21:13:06.640Z,9.762848
2023-07-02T21:14:06.592Z,9.762728
2023-07-02T21:15:06.600Z,9.762779
2023-07-02T21:16:06.653Z,9.762923
2023-07-02T21:17:06.561Z,9.762946
2023-07-02T21:18:06.629Z,9.763005
2023-07-02T21:19:06.548Z,9.762978
2023-07-02T21:20:06.545Z,9.762971
2023-07-02T21:21:06.527Z,9.763218
2023-07-02T21:22:06.534Z,9.762961
2023-07-02T21:23:06.514Z,9.762847
2023-07-02T21:24:06.488Z,9.762714
2023-07-02T21:25:06.489Z,9.762694
2023-07-02T21:26:06.468Z,9.762703
2023-07-02T21:27:06.469Z,9.762761
2023-07-02T21:28:06.435Z,9.762816
2023-07-02T21:29:06.447Z,9.762839
2023-07-02T21:30:06.436Z,9.762748
2023-07-02T21:31:06.432Z,9.762790
2023-07-02T21:32:06.493Z,9.762852
2023-07-02T21:33:06.443Z,9.762864
2023-07-02T21:34:06.446Z,9.762918
2023-07-02T21:35:06.382Z,9.762835
2023-07-02T21:36:06.388Z,9.762803
2023-07-02T21:37:06.425Z,9.762976
2023-07-02T21:38:06.348Z,9.763366
2023-07-02T21:39:06.362Z,9.763186
